Time;durP1;ratioP1;P1;durP2;ratioP2;P2;SDS_P1;SDS_P2;PMS_P1;PMS_P2;Temp;Humidity;BMP_temperature;BMP_pressure;BME280_temperature;BME280_humidity;BME280_pressure;Samples;Min_cycle;Max_cycle;Signal;HPM_P1;HPM_P2
2021/07/23 00:01:37;;;;;;;18.08;12.90;;;20.80;99.90;;;;;;5101126;28;20039;-85
2021/07/23 00:04:04;;;;;;;17.15;12.75;;;20.80;99.90;;;;;;5098216;28;20035;-85
2021/07/23 00:06:29;;;;;;;15.18;13.10;;;20.90;99.90;;;;;;5098107;28;20028;-85
2021/07/23 00:08:55;;;;;;;17.60;12.43;;;20.80;99.90;;;;;;5099256;28;20106;-85
2021/07/23 00:11:20;;;;;;;16.80;12.18;;;20.80;99.90;;;;;;5099815;28;20102;-85
2021/07/23 00:13:47;;;;;;;18.55;13.00;;;20.80;99.90;;;;;;5100068;28;20492;-85
2021/07/23 00:16:13;;;;;;;15.02;12.80;;;20.80;99.90;;;;;;5099011;28;20015;-85
2021/07/23 00:18:39;;;;;;;16.65;13.10;;;20.70;99.90;;;;;;5096605;28;20035;-85
2021/07/23 00:21:04;;;;;;;18.85;12.80;;;20.70;99.90;;;;;;5098546;28;20051;-85
2021/07/23 00:23:30;;;;;;;16.67;13.13;;;20.70;99.90;;;;;;5099291;28;20028;-86
2021/07/23 00:25:56;;;;;;;16.77;12.60;;;20.60;99.90;;;;;;5099838;28;20051;-85
2021/07/23 00:28:21;;;;;;;17.13;13.73;;;20.60;99.90;;;;;;5100737;28;20051;-85
2021/07/23 00:30:47;;;;;;;18.40;12.75;;;20.50;99.90;;;;;;5096479;28;20394;-85
2021/07/23 00:33:12;;;;;;;20.90;13.82;;;20.70;99.90;;;;;;5098548;28;20051;-85
2021/07/23 00:35:38;;;;;;;15.15;13.32;;;20.70;99.90;;;;;;5099038;28;20031;-85
2021/07/23 00:38:05;;;;;;;19.13;14.30;;;20.70;99.90;;;;;;5099190;28;20028;-85
2021/07/23 00:40:32;;;;;;;18.80;14.38;;;20.80;99.90;;;;;;5099256;28;20127;-85
2021/07/23 00:42:58;;;;;;;20.45;14.65;;;20.70;99.90;;;;;;5096371;28;20112;-85
2021/07/23 00:45:23;;;;;;;18.67;14.25;;;20.50;99.90;;;;;;5097696;28;20454;-85
2021/07/23 00:47:54;;;;;;;18.52;14.95;;;20.60;99.90;;;;;;5099343;28;20024;-85
2021/07/23 00:50:20;;;;;;;20.95;14.68;;;20.70;99.90;;;;;;5099303;28;20063;-85
2021/07/23 00:52:46;;;;;;;16.75;13.50;;;20.50;99.90;;;;;;5098734;28;20025;-85
2021/07/23 00:55:13;;;;;;;18.88;14.50;;;20.50;99.90;;;;;;5098136;28;20495;-85
2021/07/23 00:57:41;;;;;;;21.00;14.23;;;20.40;99.90;;;;;;5095679;28;20396;-85
2021/07/23 01:00:07;;;;;;;17.30;14.35;;;20.40;99.90;;;;;;5098406;28;20028;-86
2021/07/23 01:02:33;;;;;;;18.65;14.15;;;20.40;99.90;;;;;;5098708;28;20032;-86
2021/07/23 01:04:59;;;;;;;17.92;14.07;;;20.40;99.90;;;;;;5098250;28;20034;-85
2021/07/23 01:07:25;;;;;;;18.48;13.57;;;20.40;99.90;;;;;;5100951;28;20020;-85
2021/07/23 01:09:50;;;;;;;19.73;13.82;;;20.30;99.90;;;;;;5095005;28;20047;-86
2021/07/23 01:12:17;;;;;;;18.60;13.18;;;20.30;99.90;;;;;;5092148;28;20031;-86
2021/07/23 01:14:43;;;;;;;19.65;14.13;;;20.20;99.90;;;;;;5098686;28;20442;-85
2021/07/23 01:17:08;;;;;;;19.45;13.10;;;20.20;99.90;;;;;;5098651;28;20169;-85
2021/07/23 01:19:45;;;;;;;17.73;13.98;;;20.10;99.90;;;;;;5098004;28;20079;-85
2021/07/23 01:22:13;;;;;;;17.98;13.70;;;20.10;99.90;;;;;;5097122;28;20027;-86
2021/07/23 01:24:40;;;;;;;16.60;13.45;;;20.10;99.90;;;;;;5095133;28;20044;-85
2021/07/23 01:27:06;;;;;;;15.65;13.43;;;20.10;99.90;;;;;;5097473;28;20115;-86
2021/07/23 01:29:34;;;;;;;16.95;13.70;;;20.00;99.90;;;;;;5099239;28;20156;-85
2021/07/23 01:32:00;;;;;;;17.33;13.23;;;19.90;99.90;;;;;;5097954;28;20067;-86
2021/07/23 01:34:26;;;;;;;15.35;13.40;;;20.00;99.90;;;;;;5097888;28;20475;-86
2021/07/23 01:36:51;;;;;;;18.45;14.50;;;19.90;99.90;;;;;;5094898;28;20023;-85
2021/07/23 01:39:18;;;;;;;17.02;13.38;;;19.90;99.90;;;;;;5097069;28;20028;-86
2021/07/23 01:41:44;;;;;;;15.13;12.95;;;19.80;99.90;;;;;;5098564;28;20059;-85
2021/07/23 01:44:10;;;;;;;17.83;12.88;;;19.80;99.90;;;;;;5098023;28;20107;-86
2021/07/23 01:46:35;;;;;;;17.52;13.15;;;19.80;99.90;;;;;;5091981;28;20110;-86
2021/07/23 01:49:01;;;;;;;17.88;13.80;;;19.90;99.90;;;;;;5095200;28;20043;-85
2021/07/23 01:51:27;;;;;;;16.38;12.60;;;19.80;99.90;;;;;;5096363;28;20024;-86
2021/07/23 01:53:53;;;;;;;17.90;13.23;;;19.90;99.90;;;;;;5098012;28;20039;-86
2021/07/23 01:56:18;;;;;;;16.02;13.55;;;19.90;99.90;;;;;;5098675;28;20036;-85
2021/07/23 01:58:44;;;;;;;18.10;12.73;;;19.90;99.90;;;;;;5099212;28;20450;-86
2021/07/23 02:01:10;;;;;;;14.85;13.07;;;19.80;99.90;;;;;;5095742;28;20051;-86
2021/07/23 02:03:35;;;;;;;17.77;13.25;;;19.90;99.90;;;;;;5094451;28;20032;-85
2021/07/23 02:06:01;;;;;;;16.23;13.70;;;19.90;99.90;;;;;;5097312;28;20089;-85
2021/07/23 02:08:26;;;;;;;20.10;14.85;;;19.90;99.90;;;;;;5097201;28;20079;-85
2021/07/23 02:10:52;;;;;;;17.17;13.85;;;19.80;99.90;;;;;;5098406;28;20031;-86
2021/07/23 02:13:18;;;;;;;20.23;13.98;;;19.80;99.90;;;;;;5097265;28;20059;-85
2021/07/23 02:15:44;;;;;;;20.13;14.77;;;19.80;99.90;;;;;;5093335;28;20035;-86
2021/07/23 02:18:10;;;;;;;17.77;14.52;;;19.80;99.90;;;;;;5096312;28;20024;-86
2021/07/23 02:20:37;;;;;;;22.52;14.82;;;19.80;99.90;;;;;;5098220;28;20464;-86
2021/07/23 02:23:03;;;;;;;18.70;14.63;;;19.80;99.90;;;;;;5097942;28;20123;-86
2021/07/23 02:25:30;;;;;;;18.65;13.85;;;19.80;99.90;;;;;;5098789;28;20035;-85
2021/07/23 02:27:56;;;;;;;17.77;14.43;;;19.80;99.90;;;;;;5093784;28;20024;-86
2021/07/23 02:30:22;;;;;;;19.80;15.65;;;19.70;99.90;;;;;;5096141;28;20036;-85
2021/07/23 02:32:48;;;;;;;17.33;14.43;;;19.60;99.90;;;;;;5098599;28;20051;-86
2021/07/23 02:35:13;;;;;;;19.05;14.23;;;19.60;99.90;;;;;;5097404;28;20036;-86
2021/07/23 02:37:39;;;;;;;19.15;14.68;;;19.60;99.90;;;;;;5098873;28;20020;-86
2021/07/23 02:40:06;;;;;;;23.15;15.48;;;19.60;99.90;;;;;;5094958;28;20032;-86
2021/07/23 02:42:32;;;;;;;19.92;14.43;;;19.50;99.90;;;;;;5094795;28;20487;-85
2021/07/23 02:44:57;;;;;;;20.75;15.07;;;19.50;99.90;;;;;;5096903;28;20036;-86
2021/07/23 02:47:23;;;;;;;17.92;14.38;;;19.60;99.90;;;;;;5097482;28;20107;-85
2021/07/23 02:49:49;;;;;;;17.48;13.65;;;19.60;99.90;;;;;;5096039;28;20056;-86
2021/07/23 02:52:15;;;;;;;17.55;13.95;;;19.50;99.90;;;;;;5096161;28;20395;-85
2021/07/23 02:54:40;;;;;;;17.30;13.85;;;19.50;99.90;;;;;;5093848;28;20031;-86
2021/07/23 02:57:06;;;;;;;17.65;14.00;;;19.40;99.90;;;;;;5096232;28;20035;-85
2021/07/23 02:59:32;;;;;;;19.08;13.63;;;19.40;99.90;;;;;;5096784;28;20036;-86
2021/07/23 03:01:57;;;;;;;19.17;13.60;;;19.30;99.90;;;;;;5097651;28;20505;-85
2021/07/23 03:04:23;;;;;;;17.40;13.60;;;19.30;99.90;;;;;;5093342;28;20042;-86
2021/07/23 03:06:49;;;;;;;18.60;14.13;;;19.30;99.90;;;;;;5093671;28;20020;-86
2021/07/23 03:09:14;;;;;;;18.35;13.07;;;19.30;99.90;;;;;;5096046;28;20089;-85
2021/07/23 03:11:40;;;;;;;17.67;13.77;;;19.30;99.90;;;;;;5097008;28;20048;-86
2021/07/23 03:14:06;;;;;;;18.02;13.60;;;19.20;1.00;;;;;;5096850;28;20452;-85
2021/07/23 03:16:31;;;;;;;18.98;13.30;;;19.20;1.00;;;;;;5096534;28;20024;-86
2021/07/23 03:18:57;;;;;;;18.13;13.90;;;19.30;1.00;;;;;;5093467;28;20024;-86
2021/07/23 03:21:22;;;;;;;17.00;13.52;;;19.30;1.00;;;;;;5095007;28;20036;-86
2021/07/23 03:23:49;;;;;;;19.38;13.35;;;19.40;1.00;;;;;;5097164;28;20032;-86
2021/07/23 03:26:15;;;;;;;18.48;13.48;;;19.50;1.00;;;;;;5096633;28;20034;-85
2021/07/23 03:28:41;;;;;;;18.23;13.93;;;19.50;99.90;;;;;;5097246;28;20043;-86
2021/07/23 03:31:12;;;;;;;16.67;13.70;;;19.50;99.90;;;;;;5094481;28;20046;-85
2021/07/23 03:33:37;;;;;;;16.55;13.57;;;19.40;99.90;;;;;;5093446;28;20107;-86
2021/07/23 03:36:03;;;;;;;19.92;13.70;;;19.30;1.00;;;;;;5097457;28;20539;-85
2021/07/23 03:38:28;;;;;;;19.35;13.00;;;19.30;99.90;;;;;;5097009;28;20119;-86
2021/07/23 03:40:54;;;;;;;17.17;12.93;;;19.30;1.00;;;;;;5089696;28;20070;-86
2021/07/23 03:43:20;;;;;;;16.83;12.93;;;19.20;1.00;;;;;;5097412;28;20526;-86
2021/07/23 03:45:45;;;;;;;17.15;12.90;;;19.10;1.00;;;;;;5092050;28;20480;-86
2021/07/23 03:48:11;;;;;;;18.83;14.02;;;19.10;1.00;;;;;;5096333;28;20027;-85
2021/07/23 03:50:37;;;;;;;16.20;13.90;;;19.20;1.00;;;;;;5096699;28;20032;-86
2021/07/23 03:53:02;;;;;;;17.67;13.20;;;19.20;1.00;;;;;;5099128;28;20375;-86
2021/07/23 03:55:28;;;;;;;17.55;13.30;;;19.20;1.00;;;;;;5099704;28;20084;-86
2021/07/23 03:57:54;;;;;;;18.45;12.90;;;19.20;1.00;;;;;;5108011;28;20032;-86
2021/07/23 04:00:19;;;;;;;21.88;13.48;;;19.20;1.00;;;;;;5096036;28;20027;-86
2021/07/23 04:02:45;;;;;;;15.95;12.60;;;19.10;1.00;;;;;;5093439;28;20028;-85
2021/07/23 04:05:11;;;;;;;18.15;13.65;;;19.10;1.00;;;;;;5099882;28;20109;-85
2021/07/23 04:07:36;;;;;;;15.70;13.25;;;19.10;1.00;;;;;;5102539;28;20034;-86
2021/07/23 04:10:04;;;;;;;18.00;12.90;;;19.10;1.00;;;;;;5097133;28;20114;-85
2021/07/23 04:12:29;;;;;;;16.02;13.10;;;19.20;1.00;;;;;;5112461;22;20044;-87
2021/07/23 04:14:55;;;;;;;17.95;13.02;;;19.20;1.00;;;;;;5095072;28;20101;-87
2021/07/23 04:17:21;;;;;;;20.40;13.60;;;19.20;1.00;;;;;;5094676;28;20540;-87
2021/07/23 04:19:46;;;;;;;16.58;13.10;;;19.20;1.00;;;;;;5094576;28;20038;-87
2021/07/23 04:22:12;;;;;;;16.50;12.98;;;19.20;1.00;;;;;;5094130;28;20028;-87
2021/07/23 04:24:38;;;;;;;17.17;12.93;;;19.10;1.00;;;;;;5094849;28;20527;-87
2021/07/23 04:27:04;;;;;;;19.00;13.30;;;19.00;1.00;;;;;;5094789;28;20433;-87
2021/07/23 04:29:29;;;;;;;17.35;13.80;;;19.00;1.00;;;;;;5093354;28;20032;-87
2021/07/23 04:31:55;;;;;;;15.77;12.85;;;19.00;1.00;;;;;;5094715;28;20031;-87
2021/07/23 04:34:21;;;;;;;18.10;13.25;;;19.00;1.00;;;;;;5094927;28;20016;-86
2021/07/23 04:36:46;;;;;;;17.60;13.38;;;19.00;1.00;;;;;;5094390;28;20028;-87
2021/07/23 04:39:12;;;;;;;17.42;13.88;;;19.00;1.00;;;;;;5094454;28;20080;-87
2021/07/23 04:41:38;;;;;;;20.95;14.32;;;19.10;1.00;;;;;;5093825;28;20032;-87
2021/07/23 04:44:04;;;;;;;16.75;13.35;;;19.10;1.00;;;;;;5093364;28;20056;-87
2021/07/23 04:46:29;;;;;;;16.70;13.40;;;19.10;1.00;;;;;;5094227;28;20031;-87
2021/07/23 04:48:55;;;;;;;18.52;13.75;;;19.10;1.00;;;;;;5094144;28;20032;-87
2021/07/23 04:51:20;;;;;;;17.92;13.63;;;19.20;1.00;;;;;;5094060;28;20035;-87
2021/07/23 04:53:47;;;;;;;18.40;13.85;;;19.40;1.00;;;;;;5093678;28;20082;-87
2021/07/23 04:56:13;;;;;;;21.38;13.50;;;19.40;1.00;;;;;;5093995;28;20020;-87
2021/07/23 04:58:39;;;;;;;21.08;14.02;;;19.40;1.00;;;;;;5093466;28;20507;-87
2021/07/23 05:01:04;;;;;;;18.85;14.80;;;19.50;1.00;;;;;;5093805;28;20024;-87
2021/07/23 05:03:37;;;;;;;20.02;14.02;;;19.50;1.00;;;;;;5078506;28;20035;-87
2021/07/23 05:06:07;;;;;;;19.77;13.15;;;19.40;1.00;;;;;;5091633;28;20395;-87
2021/07/23 05:08:36;;;;;;;18.40;13.07;;;19.50;1.00;;;;;;5092942;28;20036;-87
2021/07/23 05:11:05;;;;;;;19.00;13.27;;;19.40;1.00;;;;;;5092438;28;20024;-87
2021/07/23 05:13:34;;;;;;;18.35;13.48;;;19.60;1.00;;;;;;5092591;28;20043;-87
2021/07/23 05:16:00;;;;;;;18.48;12.95;;;19.60;1.00;;;;;;5093635;28;20020;-87
2021/07/23 05:18:27;;;;;;;17.23;13.50;;;19.50;1.00;;;;;;5093656;28;20543;-87
2021/07/23 05:20:53;;;;;;;15.82;13.50;;;19.60;1.00;;;;;;5092768;28;20059;-87
2021/07/23 05:23:19;;;;;;;19.25;13.57;;;19.60;1.00;;;;;;5093464;28;20048;-87
2021/07/23 05:25:45;;;;;;;18.15;13.10;;;19.60;1.00;;;;;;5092993;28;20035;-86
2021/07/23 05:28:10;;;;;;;17.73;12.57;;;19.60;1.00;;;;;;5092796;28;20306;-85
2021/07/23 05:30:36;;;;;;;21.52;13.25;;;19.60;1.00;;;;;;5093579;28;20043;-86
2021/07/23 05:33:02;;;;;;;18.83;12.95;;;19.80;1.00;;;;;;5093369;28;20031;-86
2021/07/23 05:35:27;;;;;;;18.02;13.30;;;19.80;1.00;;;;;;5080891;28;20035;-86
2021/07/23 05:37:53;;;;;;;16.45;12.27;;;19.90;1.00;;;;;;5092714;28;20030;-85
2021/07/23 05:40:18;;;;;;;18.83;13.38;;;20.00;1.00;;;;;;5092525;28;20032;-86
2021/07/23 05:42:44;;;;;;;19.63;13.90;;;20.00;1.00;;;;;;5092499;28;20078;-86
2021/07/23 05:45:10;;;;;;;16.08;12.60;;;20.00;1.00;;;;;;5093297;28;20073;-86
2021/07/23 05:47:36;;;;;;;14.98;12.52;;;20.10;99.90;;;;;;5093346;28;20035;-86
2021/07/23 05:50:01;;;;;;;18.92;13.73;;;20.10;99.90;;;;;;5092560;28;20032;-86
2021/07/23 05:52:27;;;;;;;19.63;12.77;;;20.20;1.00;;;;;;5092684;28;20043;-86
2021/07/23 05:54:52;;;;;;;21.17;13.43;;;20.30;99.90;;;;;;5092458;28;20151;-86
2021/07/23 05:57:18;;;;;;;20.63;13.90;;;20.30;99.90;;;;;;5093697;28;20027;-86
2021/07/23 05:59:47;;;;;;;22.40;14.43;;;20.50;99.90;;;;;;5092390;28;20117;-86
2021/07/23 06:02:13;;;;;;;22.00;14.15;;;20.60;99.90;;;;;;5091523;28;20024;-84
2021/07/23 06:04:39;;;;;;;23.08;13.48;;;20.60;99.90;;;;;;5091246;28;20027;-84
2021/07/23 06:07:05;;;;;;;22.02;13.75;;;20.60;99.90;;;;;;5092417;28;20475;-84
2021/07/23 06:09:31;;;;;;;17.38;12.82;;;20.70;99.90;;;;;;5092040;28;20061;-87
2021/07/23 06:11:57;;;;;;;19.65;14.10;;;20.70;99.90;;;;;;5093433;28;20024;-88
2021/07/23 06:14:23;;;;;;;20.45;13.95;;;20.80;99.90;;;;;;5091727;28;20541;-85
2021/07/23 06:16:48;;;;;;;21.98;13.30;;;21.00;99.90;;;;;;5091957;28;20016;-84
2021/07/23 06:19:14;;;;;;;18.63;12.77;;;21.00;99.90;;;;;;5091651;28;20032;-85
2021/07/23 06:21:39;;;;;;;21.55;12.93;;;21.10;99.90;;;;;;5091841;28;20020;-85
2021/07/23 06:24:05;;;;;;;20.88;13.18;;;21.20;99.90;;;;;;5091959;28;20102;-85
2021/07/23 06:26:31;;;;;;;15.88;12.85;;;21.30;99.90;;;;;;5091613;28;20040;-86
2021/07/23 06:28:57;;;;;;;20.25;13.10;;;21.30;99.90;;;;;;5091330;28;20036;-86
2021/07/23 06:31:22;;;;;;;21.27;13.70;;;21.50;99.90;;;;;;5092657;28;20556;-86
2021/07/23 06:33:49;;;;;;;20.08;13.88;;;21.50;99.90;;;;;;5075916;28;20028;-85
2021/07/23 06:36:15;;;;;;;17.13;13.20;;;21.50;99.90;;;;;;5092825;28;20035;-85
2021/07/23 06:38:41;;;;;;;20.92;14.15;;;21.60;99.90;;;;;;5090672;28;20039;-84
2021/07/23 06:41:07;;;;;;;19.10;13.25;;;21.70;99.90;;;;;;5091441;28;20028;-84
2021/07/23 06:43:33;;;;;;;19.85;14.10;;;21.70;99.90;;;;;;5091566;28;20055;-84
2021/07/23 06:46:02;;;;;;;23.70;12.88;;;21.80;99.90;;;;;;5091561;28;20081;-85
2021/07/23 06:48:27;;;;;;;18.15;13.05;;;21.90;99.90;;;;;;5091562;28;20039;-85
2021/07/23 06:50:53;;;;;;;17.83;12.93;;;21.90;99.90;;;;;;5091490;28;20380;-85
2021/07/23 06:53:19;;;;;;;20.08;13.20;;;22.00;99.90;;;;;;5091269;28;20044;-86
2021/07/23 06:55:45;;;;;;;19.73;13.15;;;22.10;99.90;;;;;;5091348;28;20506;-86
2021/07/23 06:58:11;;;;;;;17.95;13.43;;;22.20;99.90;;;;;;5091673;28;20032;-85
2021/07/23 07:00:37;;;;;;;22.23;13.13;;;22.40;99.90;;;;;;5091903;28;20468;-85
2021/07/23 07:03:09;;;;;;;20.17;13.23;;;22.20;99.90;;;;;;5091699;28;20028;-85
2021/07/23 07:05:35;;;;;;;18.42;12.82;;;22.40;99.90;;;;;;5090969;28;20028;-85
2021/07/23 07:08:01;;;;;;;16.27;12.68;;;22.50;99.90;;;;;;5091136;28;20032;-85
2021/07/23 07:10:28;;;;;;;19.65;12.68;;;22.60;99.90;;;;;;5091562;28;20040;-85
2021/07/23 07:12:58;;;;;;;18.23;12.82;;;22.70;99.90;;;;;;5082797;28;20384;-85
2021/07/23 07:15:24;;;;;;;19.77;13.50;;;22.90;99.90;;;;;;5111727;28;20028;-85
2021/07/23 07:18:00;;;;;;;21.05;13.05;;;23.10;99.90;;;;;;5112011;28;20031;-85
2021/07/23 07:20:26;;;;;;;17.08;12.90;;;23.20;99.90;;;;;;5111554;28;20471;-85
2021/07/23 07:22:53;;;;;;;16.67;12.45;;;23.30;99.90;;;;;;5111028;28;20088;-85
2021/07/23 07:25:20;;;;;;;18.95;13.13;;;23.50;99.90;;;;;;5111858;28;20055;-85
2021/07/23 07:27:45;;;;;;;17.58;13.10;;;23.50;99.90;;;;;;5111765;28;20035;-85
2021/07/23 07:30:12;;;;;;;18.92;13.30;;;23.60;99.90;;;;;;5112224;28;20388;-85
2021/07/23 07:32:37;;;;;;;19.67;13.10;;;23.60;99.90;;;;;;5111469;28;20039;-85
2021/07/23 07:35:04;;;;;;;18.63;13.05;;;23.70;99.90;;;;;;5111862;28;20026;-86
2021/07/23 07:37:30;;;;;;;18.48;13.80;;;23.70;99.90;;;;;;5116252;27;20024;-84
2021/07/23 07:39:56;;;;;;;20.13;13.30;;;23.80;99.90;;;;;;5115086;28;20054;-85
2021/07/23 07:42:21;;;;;;;17.67;12.95;;;23.90;99.90;;;;;;5115717;28;20523;-88
2021/07/23 07:44:49;;;;;;;18.70;13.00;;;23.90;99.90;;;;;;5117186;27;20043;-86
2021/07/23 07:47:15;;;;;;;19.90;12.63;;;24.10;99.90;;;;;;5114886;28;20475;-88
2021/07/23 07:49:40;;;;;;;18.00;13.05;;;24.20;99.90;;;;;;5114630;28;20464;-85
2021/07/23 07:52:06;;;;;;;19.25;12.88;;;24.20;99.90;;;;;;5114840;28;20058;-85
2021/07/23 07:54:32;;;;;;;16.70;12.32;;;24.20;99.90;;;;;;5115714;28;20020;-85
2021/07/23 07:57:05;;;;;;;21.77;13.52;;;24.50;99.90;;;;;;5116034;28;20139;-85
2021/07/23 07:59:30;;;;;;;20.98;13.43;;;24.50;99.90;;;;;;5102079;28;20121;-85
2021/07/23 08:01:56;;;;;;;17.75;12.55;;;24.50;99.90;;;;;;5115076;28;20112;-85
2021/07/23 08:04:21;;;;;;;17.38;12.63;;;24.40;99.90;;;;;;5114622;28;20551;-89
2021/07/23 08:06:48;;;;;;;17.52;12.55;;;24.40;99.90;;;;;;5097985;28;20043;-90
2021/07/23 08:09:15;;;;;;;19.63;13.10;;;24.60;99.90;;;;;;5115103;28;20042;-84
2021/07/23 08:11:41;;;;;;;16.73;12.73;;;24.90;99.90;;;;;;5114755;28;20479;-84
2021/07/23 08:14:07;;;;;;;17.05;12.88;;;25.00;99.90;;;;;;5113793;28;20088;-85
2021/07/23 08:16:33;;;;;;;16.20;12.70;;;25.20;99.90;;;;;;5114597;28;20105;-85
2021/07/23 08:19:02;;;;;;;17.52;12.73;;;25.40;99.90;;;;;;5114361;28;20062;-85
2021/07/23 08:21:30;;;;;;;21.42;12.68;;;25.60;99.90;;;;;;5114178;28;20091;-85
2021/07/23 08:23:58;;;;;;;19.98;12.50;;;25.70;99.90;;;;;;5115288;28;20031;-85
2021/07/23 08:26:23;;;;;;;16.13;12.27;;;25.90;99.90;;;;;;5114176;28;20030;-85
2021/07/23 08:28:49;;;;;;;20.02;13.18;;;25.80;99.90;;;;;;5113881;28;20027;-86
2021/07/23 08:31:14;;;;;;;16.58;12.82;;;25.90;99.90;;;;;;5114396;28;20068;-85
2021/07/23 08:33:42;;;;;;;21.25;13.00;;;25.90;99.90;;;;;;5114035;28;20105;-86
2021/07/23 08:36:07;;;;;;;17.02;12.45;;;26.00;99.90;;;;;;5114647;28;20441;-85
2021/07/23 08:38:33;;;;;;;18.08;12.60;;;26.20;99.90;;;;;;5101832;28;20028;-85
2021/07/23 08:40:59;;;;;;;22.58;13.20;;;26.40;99.90;;;;;;5114033;28;20024;-86
2021/07/23 08:43:24;;;;;;;19.88;13.32;;;26.60;99.90;;;;;;5113827;28;20451;-86
2021/07/23 08:45:50;;;;;;;18.38;13.02;;;26.60;99.90;;;;;;5114873;28;20403;-85
2021/07/23 08:48:16;;;;;;;18.35;13.30;;;26.50;99.90;;;;;;5112972;28;20118;-85
2021/07/23 08:50:43;;;;;;;20.27;12.70;;;26.70;99.90;;;;;;5113386;28;20301;-86
2021/07/23 08:53:11;;;;;;;15.15;12.18;;;26.70;99.90;;;;;;5113827;28;20443;-86
2021/07/23 08:55:38;;;;;;;21.95;12.38;;;26.90;99.90;;;;;;5114218;28;20028;-86
2021/07/23 08:58:07;;;;;;;17.77;13.32;;;26.90;99.90;;;;;;5113410;28;20513;-86
2021/07/23 09:00:33;;;;;;;18.15;12.57;;;26.90;99.90;;;;;;5113535;28;20085;-86
2021/07/23 09:03:01;;;;;;;15.90;13.20;;;27.20;99.90;;;;;;5114106;28;20031;-85
2021/07/23 09:05:30;;;;;;;17.45;13.70;;;27.60;99.90;;;;;;5112982;28;20083;-86
2021/07/23 09:08:15;;;;;;;20.27;13.55;;;27.70;99.90;;;;;;5113493;28;20050;-86
2021/07/23 09:10:43;;;;;;;18.25;13.60;;;27.90;99.90;;;;;;5113292;28;20049;-86
2021/07/23 09:13:09;;;;;;;16.45;12.15;;;27.90;99.90;;;;;;5113442;28;20051;-85
2021/07/23 09:15:40;;;;;;;18.30;13.07;;;27.90;99.90;;;;;;5114407;27;20430;-86
2021/07/23 09:18:27;;;;;;;17.83;12.95;;;28.10;99.90;;;;;;5112392;28;20065;-86
2021/07/23 09:21:00;;;;;;;15.80;12.50;;;28.40;99.90;;;;;;5113553;28;20096;-86
2021/07/23 09:23:31;;;;;;;17.98;12.63;;;28.40;99.90;;;;;;5113157;28;20027;-86
2021/07/23 09:26:14;;;;;;;19.30;12.77;;;28.40;99.90;;;;;;5113156;28;20035;-86
2021/07/23 09:28:41;;;;;;;19.70;12.85;;;28.20;99.90;;;;;;5099177;28;20461;-86
2021/07/23 09:31:09;;;;;;;16.58;13.02;;;28.30;99.90;;;;;;5113301;28;20494;-86
2021/07/23 09:33:41;;;;;;;22.48;13.35;;;28.00;99.90;;;;;;5113063;28;20463;-86
2021/07/23 09:36:15;;;;;;;18.83;13.00;;;28.20;99.90;;;;;;5108223;28;20034;-86
2021/07/23 09:38:46;;;;;;;18.48;13.10;;;28.50;99.90;;;;;;5113073;28;20059;-86
2021/07/23 09:41:24;;;;;;;16.13;12.82;;;28.70;99.90;;;;;;5100335;28;20027;-86
2021/07/23 09:44:08;;;;;;;17.02;12.63;;;28.90;99.90;;;;;;5113109;28;20027;-87
2021/07/23 09:46:35;;;;;;;18.00;12.23;;;29.00;99.90;;;;;;5112896;28;20026;-86
2021/07/23 09:49:26;;;;;;;21.35;13.18;;;29.20;99.90;;;;;;5112478;28;20114;-86
2021/07/23 09:51:52;;;;;;;15.60;12.75;;;29.30;99.90;;;;;;5096888;28;20031;-86
2021/07/23 09:54:19;;;;;;;18.30;13.20;;;29.50;99.90;;;;;;5109072;28;20031;-87
2021/07/23 09:56:49;;;;;;;20.25;13.65;;;29.40;99.90;;;;;;5112566;28;20035;-86
2021/07/23 09:59:42;;;;;;;15.93;13.30;;;29.30;99.90;;;;;;5112501;28;20028;-86
2021/07/23 10:02:19;;;;;;;16.35;12.65;;;29.30;99.90;;;;;;5112170;28;20055;-86
2021/07/23 10:05:05;;;;;;;16.38;12.95;;;29.10;99.90;;;;;;5112767;28;20526;-86
2021/07/23 10:07:39;;;;;;;17.45;12.93;;;29.20;99.90;;;;;;5112336;28;20084;-86
2021/07/23 10:10:09;;;;;;;17.15;13.63;;;29.40;99.90;;;;;;5112253;28;20078;-85
2021/07/23 10:12:37;;;;;;;16.98;13.25;;;29.60;99.90;;;;;;5112112;28;20073;-86
2021/07/23 10:15:03;;;;;;;15.43;12.75;;;29.70;99.90;;;;;;5110496;28;20483;-86
2021/07/23 10:17:31;;;;;;;17.33;12.85;;;29.60;99.90;;;;;;5112769;28;20356;-86
2021/07/23 10:19:57;;;;;;;16.48;13.10;;;29.80;99.90;;;;;;5112317;28;20488;-86
2021/07/23 10:22:25;;;;;;;16.77;13.18;;;29.90;99.90;;;;;;5112360;28;20111;-86
2021/07/23 10:24:51;;;;;;;16.92;13.55;;;30.00;99.90;;;;;;5096167;28;20118;-86
2021/07/23 10:27:17;;;;;;;18.35;12.80;;;29.90;99.90;;;;;;5112669;28;20107;-87
2021/07/23 10:29:47;;;;;;;19.00;13.55;;;29.70;99.90;;;;;;5112162;28;20032;-87
2021/07/23 10:32:28;;;;;;;18.90;13.50;;;29.80;99.90;;;;;;5111620;28;20024;-86
2021/07/23 10:34:56;;;;;;;13.88;12.10;;;30.00;99.90;;;;;;5112003;28;20028;-86
2021/07/23 10:37:31;;;;;;;19.15;13.27;;;30.10;99.90;;;;;;5112059;28;20020;-87
2021/07/23 10:40:09;;;;;;;16.30;13.25;;;30.30;99.90;;;;;;5096946;28;20035;-87
2021/07/23 10:42:42;;;;;;;17.67;13.32;;;30.70;99.90;;;;;;5112102;28;20425;-87
2021/07/23 10:45:16;;;;;;;15.18;12.45;;;30.50;99.90;;;;;;5110786;28;20377;-86
2021/07/23 10:47:44;;;;;;;16.75;13.40;;;30.80;99.90;;;;;;5112178;28;20031;-87
2021/07/23 10:50:21;;;;;;;16.80;13.20;;;30.60;99.90;;;;;;5112052;28;20032;-86
2021/07/23 10:52:47;;;;;;;16.42;13.07;;;30.90;99.90;;;;;;5112067;28;20019;-88
2021/07/23 10:55:22;;;;;;;16.25;13.25;;;31.10;99.90;;;;;;5094935;28;20127;-88
2021/07/23 10:58:09;;;;;;;18.00;13.68;;;31.30;99.90;;;;;;5111586;28;20030;-88
2021/07/23 11:00:47;;;;;;;15.48;12.35;;;31.50;99.90;;;;;;5109629;28;20035;-88
2021/07/23 11:03:35;;;;;;;16.50;13.60;;;31.40;99.90;;;;;;5111943;28;20031;-86
2021/07/23 11:06:01;;;;;;;16.27;12.77;;;31.40;99.90;;;;;;5111287;28;20487;-87
2021/07/23 11:08:28;;;;;;;19.42;13.32;;;31.80;99.90;;;;;;5090350;28;20027;-86
2021/07/23 11:10:54;;;;;;;14.60;12.02;;;31.80;99.90;;;;;;5109620;28;20028;-86
2021/07/23 11:13:22;;;;;;;15.85;12.80;;;31.70;99.90;;;;;;5110327;28;20054;-85
2021/07/23 11:15:48;;;;;;;17.17;12.95;;;32.00;99.90;;;;;;5108869;27;20118;-86
2021/07/23 11:18:15;;;;;;;14.38;12.13;;;32.40;99.90;;;;;;5110900;27;20024;-87
2021/07/23 11:20:42;;;;;;;16.70;13.32;;;32.80;99.90;;;;;;5111015;28;20032;-87
2021/07/23 11:23:10;;;;;;;21.45;13.65;;;32.80;99.90;;;;;;5113342;27;20027;-87
2021/07/23 11:25:38;;;;;;;15.27;12.38;;;32.50;99.90;;;;;;5111796;28;20024;-88
2021/07/23 11:28:06;;;;;;;15.15;12.45;;;32.90;99.90;;;;;;5111905;28;20100;-87
2021/07/23 11:30:35;;;;;;;18.67;13.07;;;33.10;99.90;;;;;;5110854;27;20438;-87
2021/07/23 11:33:04;;;;;;;15.68;12.90;;;33.20;99.90;;;;;;5112485;27;20046;-89
2021/07/23 11:35:31;;;;;;;14.90;11.93;;;33.40;99.90;;;;;;5112273;27;20043;-87
2021/07/23 11:37:59;;;;;;;17.83;12.13;;;34.20;99.90;;;;;;5116292;27;20216;-88
2021/07/23 11:40:25;;;;;;;17.48;13.07;;;34.00;99.90;;;;;;5110213;28;20024;-88
2021/07/23 11:42:54;;;;;;;17.30;13.35;;;33.80;99.90;;;;;;5112585;28;20024;-89
2021/07/23 11:45:31;;;;;;;15.40;12.38;;;35.30;99.90;;;;;;5127405;27;20046;-88
2021/07/23 11:48:06;;;;;;;17.83;12.55;;;37.50;99.90;;;;;;5119785;27;20372;-88
2021/07/23 11:50:31;;;;;;;13.50;12.10;;;38.30;99.90;;;;;;5118390;27;20473;-89
2021/07/23 11:53:03;;;;;;;16.30;13.05;;;39.80;99.90;;;;;;5118089;27;20049;-89
2021/07/23 11:55:41;;;;;;;17.83;12.63;;;40.50;99.90;;;;;;5114838;28;20032;-89
2021/07/23 11:58:08;;;;;;;15.77;12.90;;;39.30;99.90;;;;;;5114898;28;20028;-89
2021/07/23 12:00:34;;;;;;;16.08;12.77;;;38.90;99.90;;;;;;5115948;28;20031;-89
2021/07/23 12:03:16;;;;;;;16.80;13.77;;;37.60;99.90;;;;;;5115326;27;20032;-89
2021/07/23 12:05:42;;;;;;;15.90;13.00;;;37.70;99.90;;;;;;5114927;28;20392;-88
2021/07/23 12:08:08;;;;;;;18.27;13.00;;;37.50;99.90;;;;;;5114604;28;20024;-89
2021/07/23 12:10:34;;;;;;;14.68;13.13;;;38.50;99.90;;;;;;5114872;28;20043;-89
2021/07/23 12:13:08;;;;;;;14.60;12.45;;;38.40;99.90;;;;;;5114648;28;20047;-89
2021/07/23 12:15:50;;;;;;;15.73;13.05;;;36.90;99.90;;;;;;5114486;28;20027;-89
2021/07/23 12:18:18;;;;;;;14.90;12.15;;;36.10;99.90;;;;;;5114911;28;20023;-89
2021/07/23 12:20:44;;;;;;;17.52;13.40;;;36.00;99.90;;;;;;5114915;28;20035;-88
2021/07/23 12:23:10;;;;;;;16.83;12.75;;;37.10;99.90;;;;;;5114487;28;20046;-89
2021/07/23 12:25:46;;;;;;;16.42;12.57;;;39.50;99.90;;;;;;5114390;28;20031;-89
2021/07/23 12:28:14;;;;;;;14.45;12.95;;;42.00;99.90;;;;;;5114439;28;20036;-89
2021/07/23 12:30:44;;;;;;;14.23;12.75;;;42.00;99.90;;;;;;5114923;28;20039;-89